Terminal Aerodrome Forecast
Issued by NWS

Current Version | Previous Version | Text Only | Print | Product List | Glossary On
Versions: 1 2 3 4 5 6 7 8 9 10 11 12 13 14 15 16 17 18
533
FTUS43 KILX 271130
TAFCMI
TAF
KCMI 271130Z 2712/2812 22004KT P6SM SCT100 BKN200
     FM271400 19004KT P6SM VCTS SCT020 OVC060CB
     FM271700 19004KT P6SM OVC080
     FM272200 19006KT P6SM VCTS BKN080CB PROB30 2722/2802 4SM TSRA
      OVC040CB
     FM280200 21004KT P6SM BKN100=

USA.gov is the U.S. government's official web portal to all federal, state and local government web resources and services.